Terminal Aerodrome Forecast
Issued by NWS Cleveland, OH

Home | Current Version | Previous Version | Text Only | Print | Product List | Glossary On
Versions: 1 2 3 4 5 6 7 8 9 10 11 12 13 14 15 16 17 18 19 20 21
000
FTUS41 KCLE 301200 AAA
TAFTOL
TAF AMD
KTOL 301220Z 3012/0112 35010KT P6SM OVC015
      TEMPO 3012/3016 OVC007
     FM302000 01006KT P6SM BKN020
     FM302200 01004KT P6SM SCT020
     FM010600 01004KT 3SM BR OVC004=

USA.gov is the U.S. government's official web portal to all federal, state and local government web resources and services.